sensor_id;sensor_type;location;lat;lon;timestamp;P1;durP1;ratioP1;P2;durP2;ratioP2
10154;SDS011;5118;48.570;7.916;2023-01-01T00:00:09;26.07;;;21.93;;
10154;SDS011;5118;48.570;7.916;2023-01-01T00:02:38;25.37;;;21.03;;
10154;SDS011;5118;48.570;7.916;2023-01-01T00:05:07;26.33;;;22.97;;
10154;SDS011;5118;48.570;7.916;2023-01-01T00:07:35;26.67;;;23.00;;
10154;SDS011;5118;48.570;7.916;2023-01-01T00:10:06;27.40;;;23.17;;
10154;SDS011;5118;48.570;7.916;2023-01-01T00:13:01;26.00;;;23.20;;
10154;SDS011;5118;48.570;7.916;2023-01-01T00:15:30;28.90;;;24.77;;
10154;SDS011;5118;48.570;7.916;2023-01-01T00:17:58;26.93;;;21.00;;
10154;SDS011;5118;48.570;7.916;2023-01-01T00:20:26;21.60;;;18.60;;
10154;SDS011;5118;48.570;7.916;2023-01-01T00:23:01;19.83;;;17.50;;
10154;SDS011;5118;48.570;7.916;2023-01-01T00:25:30;18.83;;;14.87;;
10154;SDS011;5118;48.570;7.916;2023-01-01T00:27:59;17.83;;;13.67;;
10154;SDS011;5118;48.570;7.916;2023-01-01T00:30:27;14.47;;;12.40;;
10154;SDS011;5118;48.570;7.916;2023-01-01T00:32:56;13.90;;;11.63;;
10154;SDS011;5118;48.570;7.916;2023-01-01T00:35:24;12.03;;;10.40;;
10154;SDS011;5118;48.570;7.916;2023-01-01T00:37:53;12.80;;;9.20;;
10154;SDS011;5118;48.570;7.916;2023-01-01T00:40:22;11.57;;;8.90;;
10154;SDS011;5118;48.570;7.916;2023-01-01T00:42:51;10.93;;;8.50;;
10154;SDS011;5118;48.570;7.916;2023-01-01T00:45:20;10.70;;;9.03;;
10154;SDS011;5118;48.570;7.916;2023-01-01T00:47:49;11.73;;;8.40;;
10154;SDS011;5118;48.570;7.916;2023-01-01T00:50:18;8.97;;;8.07;;
10154;SDS011;5118;48.570;7.916;2023-01-01T00:52:47;9.80;;;8.30;;
10154;SDS011;5118;48.570;7.916;2023-01-01T00:55:16;10.27;;;7.53;;
10154;SDS011;5118;48.570;7.916;2023-01-01T00:57:44;9.20;;;7.27;;
10154;SDS011;5118;48.570;7.916;2023-01-01T01:00:16;9.37;;;7.53;;
10154;SDS011;5118;48.570;7.916;2023-01-01T01:02:45;10.07;;;7.17;;
10154;SDS011;5118;48.570;7.916;2023-01-01T01:05:14;7.90;;;6.60;;
10154;SDS011;5118;48.570;7.916;2023-01-01T01:07:42;7.60;;;6.77;;
10154;SDS011;5118;48.570;7.916;2023-01-01T01:10:10;7.90;;;6.73;;
10154;SDS011;5118;48.570;7.916;2023-01-01T01:12:38;7.87;;;6.50;;
10154;SDS011;5118;48.570;7.916;2023-01-01T01:15:07;9.03;;;6.87;;
10154;SDS011;5118;48.570;7.916;2023-01-01T01:17:38;8.90;;;7.03;;
10154;SDS011;5118;48.570;7.916;2023-01-01T01:20:07;8.97;;;7.60;;
10154;SDS011;5118;48.570;7.916;2023-01-01T01:22:36;8.47;;;7.57;;
10154;SDS011;5118;48.570;7.916;2023-01-01T01:25:05;9.93;;;8.30;;
10154;SDS011;5118;48.570;7.916;2023-01-01T01:27:34;10.17;;;7.57;;
10154;SDS011;5118;48.570;7.916;2023-01-01T01:30:03;9.63;;;7.90;;
10154;SDS011;5118;48.570;7.916;2023-01-01T01:32:32;11.27;;;7.70;;
10154;SDS011;5118;48.570;7.916;2023-01-01T01:35:02;9.30;;;7.40;;
10154;SDS011;5118;48.570;7.916;2023-01-01T01:37:31;10.40;;;8.10;;
10154;SDS011;5118;48.570;7.916;2023-01-01T01:39:59;9.97;;;7.30;;
10154;SDS011;5118;48.570;7.916;2023-01-01T01:42:27;8.93;;;7.30;;
10154;SDS011;5118;48.570;7.916;2023-01-01T01:44:56;10.20;;;7.47;;
10154;SDS011;5118;48.570;7.916;2023-01-01T01:47:27;10.37;;;7.97;;
10154;SDS011;5118;48.570;7.916;2023-01-01T01:50:03;10.53;;;7.53;;
10154;SDS011;5118;48.570;7.916;2023-01-01T01:52:36;8.83;;;7.40;;
10154;SDS011;5118;48.570;7.916;2023-01-01T01:55:08;8.93;;;7.23;;
10154;SDS011;5118;48.570;7.916;2023-01-01T01:57:37;9.00;;;6.83;;
10154;SDS011;5118;48.570;7.916;2023-01-01T02:00:07;10.03;;;6.53;;
10154;SDS011;5118;48.570;7.916;2023-01-01T02:02:38;7.13;;;5.90;;
10154;SDS011;5118;48.570;7.916;2023-01-01T02:05:13;7.73;;;6.10;;
10154;SDS011;5118;48.570;7.916;2023-01-01T02:07:43;6.73;;;5.60;;
10154;SDS011;5118;48.570;7.916;2023-01-01T02:10:12;7.73;;;5.90;;
10154;SDS011;5118;48.570;7.916;2023-01-01T02:12:40;7.57;;;5.73;;
10154;SDS011;5118;48.570;7.916;2023-01-01T02:15:09;6.50;;;4.97;;
10154;SDS011;5118;48.570;7.916;2023-01-01T02:17:39;7.10;;;5.60;;
10154;SDS011;5118;48.570;7.916;2023-01-01T02:23:19;6.97;;;5.27;;
10154;SDS011;5118;48.570;7.916;2023-01-01T02:26:12;5.90;;;4.80;;
10154;SDS011;5118;48.570;7.916;2023-01-01T02:29:07;9.13;;;4.77;;
10154;SDS011;5118;48.570;7.916;2023-01-01T02:31:44;5.97;;;4.60;;
10154;SDS011;5118;48.570;7.916;2023-01-01T02:34:18;6.20;;;4.20;;
10154;SDS011;5118;48.570;7.916;2023-01-01T02:36:50;5.37;;;4.23;;
10154;SDS011;5118;48.570;7.916;2023-01-01T02:39:21;4.37;;;3.60;;
10154;SDS011;5118;48.570;7.916;2023-01-01T02:41:53;5.03;;;3.87;;
10154;SDS011;5118;48.570;7.916;2023-01-01T02:44:26;4.33;;;3.63;;
10154;SDS011;5118;48.570;7.916;2023-01-01T02:47:04;5.00;;;3.30;;
10154;SDS011;5118;48.570;7.916;2023-01-01T02:49:34;5.53;;;3.83;;
10154;SDS011;5118;48.570;7.916;2023-01-01T02:52:06;4.93;;;3.20;;
10154;SDS011;5118;48.570;7.916;2023-01-01T02:54:41;5.10;;;3.37;;
10154;SDS011;5118;48.570;7.916;2023-01-01T02:57:18;4.30;;;3.23;;
10154;SDS011;5118;48.570;7.916;2023-01-01T02:59:59;4.40;;;3.23;;
10154;SDS011;5118;48.570;7.916;2023-01-01T03:03:04;4.00;;;3.17;;
10154;SDS011;5118;48.570;7.916;2023-01-01T03:05:41;5.10;;;3.33;;
10154;SDS011;5118;48.570;7.916;2023-01-01T03:08:36;4.87;;;3.30;;
10154;SDS011;5118;48.570;7.916;2023-01-01T03:11:12;3.63;;;3.27;;
10154;SDS011;5118;48.570;7.916;2023-01-01T03:13:46;3.33;;;2.90;;
10154;SDS011;5118;48.570;7.916;2023-01-01T03:16:22;3.50;;;2.83;;
10154;SDS011;5118;48.570;7.916;2023-01-01T03:18:56;4.27;;;3.00;;
10154;SDS011;5118;48.570;7.916;2023-01-01T03:21:41;5.27;;;3.10;;
10154;SDS011;5118;48.570;7.916;2023-01-01T03:24:14;4.50;;;2.80;;
10154;SDS011;5118;48.570;7.916;2023-01-01T03:26:47;6.30;;;3.33;;
10154;SDS011;5118;48.570;7.916;2023-01-01T03:29:19;4.63;;;3.00;;
10154;SDS011;5118;48.570;7.916;2023-01-01T03:31:51;3.97;;;3.07;;
10154;SDS011;5118;48.570;7.916;2023-01-01T03:34:24;5.07;;;3.20;;
10154;SDS011;5118;48.570;7.916;2023-01-01T03:36:57;4.73;;;3.00;;
10154;SDS011;5118;48.570;7.916;2023-01-01T03:39:32;4.77;;;3.20;;
10154;SDS011;5118;48.570;7.916;2023-01-01T03:42:07;5.47;;;3.30;;
10154;SDS011;5118;48.570;7.916;2023-01-01T03:44:41;5.77;;;3.10;;
10154;SDS011;5118;48.570;7.916;2023-01-01T03:47:14;3.73;;;3.07;;
10154;SDS011;5118;48.570;7.916;2023-01-01T03:49:43;4.23;;;2.87;;
10154;SDS011;5118;48.570;7.916;2023-01-01T03:52:20;3.40;;;3.10;;
10154;SDS011;5118;48.570;7.916;2023-01-01T03:55:05;6.60;;;3.83;;
10154;SDS011;5118;48.570;7.916;2023-01-01T03:57:40;5.87;;;2.80;;
10154;SDS011;5118;48.570;7.916;2023-01-01T04:00:16;4.40;;;3.13;;
10154;SDS011;5118;48.570;7.916;2023-01-01T04:02:48;3.40;;;2.83;;
10154;SDS011;5118;48.570;7.916;2023-01-01T04:05:20;3.90;;;2.77;;
10154;SDS011;5118;48.570;7.916;2023-01-01T04:07:49;4.63;;;2.93;;
10154;SDS011;5118;48.570;7.916;2023-01-01T04:10:20;4.33;;;3.10;;
10154;SDS011;5118;48.570;7.916;2023-01-01T04:12:51;4.97;;;3.10;;
10154;SDS011;5118;48.570;7.916;2023-01-01T04:15:20;4.50;;;3.27;;
10154;SDS011;5118;48.570;7.916;2023-01-01T04:17:53;5.77;;;4.17;;
10154;SDS011;5118;48.570;7.916;2023-01-01T04:20:21;5.43;;;3.20;;
10154;SDS011;5118;48.570;7.916;2023-01-01T04:22:51;5.80;;;4.73;;
10154;SDS011;5118;48.570;7.916;2023-01-01T04:25:22;7.13;;;5.57;;
10154;SDS011;5118;48.570;7.916;2023-01-01T04:27:50;4.90;;;3.30;;
10154;SDS011;5118;48.570;7.916;2023-01-01T04:30:18;4.97;;;3.20;;
10154;SDS011;5118;48.570;7.916;2023-01-01T04:32:47;4.10;;;2.97;;
10154;SDS011;5118;48.570;7.916;2023-01-01T04:35:17;3.20;;;2.90;;
10154;SDS011;5118;48.570;7.916;2023-01-01T04:37:45;4.27;;;2.70;;
10154;SDS011;5118;48.570;7.916;2023-01-01T04:40:14;4.53;;;3.00;;
10154;SDS011;5118;48.570;7.916;2023-01-01T04:42:42;4.20;;;2.80;;
10154;SDS011;5118;48.570;7.916;2023-01-01T04:45:10;6.13;;;3.33;;
10154;SDS011;5118;48.570;7.916;2023-01-01T04:47:41;5.27;;;3.00;;
10154;SDS011;5118;48.570;7.916;2023-01-01T04:50:09;3.93;;;3.03;;
10154;SDS011;5118;48.570;7.916;2023-01-01T04:52:38;4.17;;;2.80;;
10154;SDS011;5118;48.570;7.916;2023-01-01T04:55:07;4.30;;;3.10;;
10154;SDS011;5118;48.570;7.916;2023-01-01T04:57:36;4.33;;;2.90;;
10154;SDS011;5118;48.570;7.916;2023-01-01T05:00:04;3.97;;;2.90;;
10154;SDS011;5118;48.570;7.916;2023-01-01T05:02:34;4.63;;;3.07;;
10154;SDS011;5118;48.570;7.916;2023-01-01T05:05:02;5.33;;;3.03;;
10154;SDS011;5118;48.570;7.916;2023-01-01T05:07:31;6.57;;;2.90;;
10154;SDS011;5118;48.570;7.916;2023-01-01T05:10:01;4.87;;;2.90;;
10154;SDS011;5118;48.570;7.916;2023-01-01T05:12:30;3.10;;;2.73;;
10154;SDS011;5118;48.570;7.916;2023-01-01T05:14:58;4.77;;;2.93;;
10154;SDS011;5118;48.570;7.916;2023-01-01T05:17:26;3.97;;;2.90;;
10154;SDS011;5118;48.570;7.916;2023-01-01T05:19:55;3.20;;;2.90;;
10154;SDS011;5118;48.570;7.916;2023-01-01T05:22:23;6.40;;;2.77;;
10154;SDS011;5118;48.570;7.916;2023-01-01T05:24:52;4.47;;;3.00;;
10154;SDS011;5118;48.570;7.916;2023-01-01T05:27:22;4.30;;;2.90;;
10154;SDS011;5118;48.570;7.916;2023-01-01T05:29:50;4.10;;;2.87;;
10154;SDS011;5118;48.570;7.916;2023-01-01T05:32:18;3.63;;;2.50;;
10154;SDS011;5118;48.570;7.916;2023-01-01T05:34:47;5.80;;;3.10;;
10154;SDS011;5118;48.570;7.916;2023-01-01T05:37:17;4.23;;;2.60;;
10154;SDS011;5118;48.570;7.916;2023-01-01T05:39:45;4.77;;;3.20;;
10154;SDS011;5118;48.570;7.916;2023-01-01T05:42:13;4.73;;;2.87;;
10154;SDS011;5118;48.570;7.916;2023-01-01T05:44:45;5.40;;;2.70;;
10154;SDS011;5118;48.570;7.916;2023-01-01T05:47:13;5.17;;;3.10;;
10154;SDS011;5118;48.570;7.916;2023-01-01T05:49:44;3.83;;;3.10;;
10154;SDS011;5118;48.570;7.916;2023-01-01T05:52:12;5.03;;;3.10;;
10154;SDS011;5118;48.570;7.916;2023-01-01T05:54:40;3.70;;;2.80;;
10154;SDS011;5118;48.570;7.916;2023-01-01T05:57:09;4.97;;;2.90;;
10154;SDS011;5118;48.570;7.916;2023-01-01T05:59:37;4.53;;;3.03;;
10154;SDS011;5118;48.570;7.916;2023-01-01T06:02:07;4.17;;;3.27;;
10154;SDS011;5118;48.570;7.916;2023-01-01T06:04:35;4.13;;;2.90;;
10154;SDS011;5118;48.570;7.916;2023-01-01T06:07:04;4.43;;;3.10;;
10154;SDS011;5118;48.570;7.916;2023-01-01T06:09:32;5.83;;;3.20;;
10154;SDS011;5118;48.570;7.916;2023-01-01T06:12:01;6.20;;;3.10;;
10154;SDS011;5118;48.570;7.916;2023-01-01T06:14:29;4.73;;;2.90;;
10154;SDS011;5118;48.570;7.916;2023-01-01T06:16:58;5.07;;;3.10;;
10154;SDS011;5118;48.570;7.916;2023-01-01T06:19:28;5.87;;;2.93;;
10154;SDS011;5118;48.570;7.916;2023-01-01T06:21:56;5.83;;;3.00;;
10154;SDS011;5118;48.570;7.916;2023-01-01T06:24:24;4.37;;;3.20;;
10154;SDS011;5118;48.570;7.916;2023-01-01T06:26:53;4.60;;;3.00;;
10154;SDS011;5118;48.570;7.916;2023-01-01T06:29:21;7.43;;;3.17;;
10154;SDS011;5118;48.570;7.916;2023-01-01T06:31:49;3.73;;;2.97;;
10154;SDS011;5118;48.570;7.916;2023-01-01T06:34:17;5.03;;;2.83;;
10154;SDS011;5118;48.570;7.916;2023-01-01T06:36:47;5.63;;;3.10;;
10154;SDS011;5118;48.570;7.916;2023-01-01T06:39:15;4.40;;;3.17;;
10154;SDS011;5118;48.570;7.916;2023-01-01T06:41:43;4.83;;;2.83;;
10154;SDS011;5118;48.570;7.916;2023-01-01T06:44:12;5.13;;;2.87;;
10154;SDS011;5118;48.570;7.916;2023-01-01T06:46:40;4.90;;;2.90;;
10154;SDS011;5118;48.570;7.916;2023-01-01T06:49:09;6.37;;;2.90;;
10154;SDS011;5118;48.570;7.916;2023-01-01T06:51:39;4.17;;;2.93;;
10154;SDS011;5118;48.570;7.916;2023-01-01T06:54:09;5.70;;;3.00;;
10154;SDS011;5118;48.570;7.916;2023-01-01T06:56:38;5.77;;;3.30;;
10154;SDS011;5118;48.570;7.916;2023-01-01T06:59:06;5.57;;;3.00;;
10154;SDS011;5118;48.570;7.916;2023-01-01T07:01:35;5.50;;;3.23;;
10154;SDS011;5118;48.570;7.916;2023-01-01T07:04:11;4.43;;;3.03;;
10154;SDS011;5118;48.570;7.916;2023-01-01T07:06:42;4.50;;;3.23;;
10154;SDS011;5118;48.570;7.916;2023-01-01T07:09:11;7.43;;;3.40;;
10154;SDS011;5118;48.570;7.916;2023-01-01T07:11:40;6.60;;;3.87;;
10154;SDS011;5118;48.570;7.916;2023-01-01T07:14:09;6.93;;;3.57;;
10154;SDS011;5118;48.570;7.916;2023-01-01T07:16:37;5.03;;;3.53;;
10154;SDS011;5118;48.570;7.916;2023-01-01T07:19:06;5.60;;;3.70;;
10154;SDS011;5118;48.570;7.916;2023-01-01T07:21:37;5.20;;;3.70;;
10154;SDS011;5118;48.570;7.916;2023-01-01T07:24:10;5.60;;;3.70;;
10154;SDS011;5118;48.570;7.916;2023-01-01T07:26:40;7.63;;;3.80;;
10154;SDS011;5118;48.570;7.916;2023-01-01T07:29:09;10.77;;;3.80;;
10154;SDS011;5118;48.570;7.916;2023-01-01T07:31:39;5.30;;;3.20;;
10154;SDS011;5118;48.570;7.916;2023-01-01T07:34:10;6.30;;;4.20;;
10154;SDS011;5118;48.570;7.916;2023-01-01T07:36:40;6.50;;;3.50;;
10154;SDS011;5118;48.570;7.916;2023-01-01T07:39:09;6.33;;;4.00;;
10154;SDS011;5118;48.570;7.916;2023-01-01T07:41:39;4.90;;;3.27;;
10154;SDS011;5118;48.570;7.916;2023-01-01T07:44:07;4.87;;;3.17;;
10154;SDS011;5118;48.570;7.916;2023-01-01T07:46:35;4.57;;;3.20;;
10154;SDS011;5118;48.570;7.916;2023-01-01T07:49:04;7.13;;;3.40;;
10154;SDS011;5118;48.570;7.916;2023-01-01T07:51:32;5.20;;;3.60;;
10154;SDS011;5118;48.570;7.916;2023-01-01T07:54:00;5.10;;;3.23;;
10154;SDS011;5118;48.570;7.916;2023-01-01T07:56:33;4.47;;;3.30;;
10154;SDS011;5118;48.570;7.916;2023-01-01T07:59:03;5.00;;;3.47;;
10154;SDS011;5118;48.570;7.916;2023-01-01T08:01:33;4.63;;;3.30;;
10154;SDS011;5118;48.570;7.916;2023-01-01T08:04:03;4.97;;;3.20;;
10154;SDS011;5118;48.570;7.916;2023-01-01T08:06:31;4.77;;;3.10;;
10154;SDS011;5118;48.570;7.916;2023-01-01T08:09:00;5.30;;;3.80;;
10154;SDS011;5118;48.570;7.916;2023-01-01T08:11:28;5.33;;;3.20;;
10154;SDS011;5118;48.570;7.916;2023-01-01T08:13:56;5.57;;;3.67;;
10154;SDS011;5118;48.570;7.916;2023-01-01T08:16:26;8.43;;;4.80;;
10154;SDS011;5118;48.570;7.916;2023-01-01T08:18:54;7.57;;;5.90;;
10154;SDS011;5118;48.570;7.916;2023-01-01T08:21:23;8.67;;;5.40;;
10154;SDS011;5118;48.570;7.916;2023-01-01T08:23:51;6.43;;;4.23;;
10154;SDS011;5118;48.570;7.916;2023-01-01T08:26:25;4.97;;;3.63;;
10154;SDS011;5118;48.570;7.916;2023-01-01T08:28:55;6.97;;;3.50;;
10154;SDS011;5118;48.570;7.916;2023-01-01T08:31:24;8.20;;;4.70;;
10154;SDS011;5118;48.570;7.916;2023-01-01T08:33:54;5.87;;;3.80;;
10154;SDS011;5118;48.570;7.916;2023-01-01T08:36:22;4.33;;;3.87;;
10154;SDS011;5118;48.570;7.916;2023-01-01T08:38:51;6.27;;;4.83;;
10154;SDS011;5118;48.570;7.916;2023-01-01T08:41:20;7.63;;;4.10;;
10154;SDS011;5118;48.570;7.916;2023-01-01T08:43:48;7.43;;;4.67;;
10154;SDS011;5118;48.570;7.916;2023-01-01T08:46:17;5.17;;;3.90;;
10154;SDS011;5118;48.570;7.916;2023-01-01T08:48:45;6.63;;;4.33;;
10154;SDS011;5118;48.570;7.916;2023-01-01T08:51:15;5.53;;;4.40;;
10154;SDS011;5118;48.570;7.916;2023-01-01T08:53:45;5.73;;;4.00;;
10154;SDS011;5118;48.570;7.916;2023-01-01T08:56:17;5.17;;;3.53;;
10154;SDS011;5118;48.570;7.916;2023-01-01T08:58:46;6.87;;;3.40;;
10154;SDS011;5118;48.570;7.916;2023-01-01T09:01:15;5.93;;;3.50;;
10154;SDS011;5118;48.570;7.916;2023-01-01T09:03:47;4.77;;;3.50;;
10154;SDS011;5118;48.570;7.916;2023-01-01T09:06:16;6.33;;;3.50;;
10154;SDS011;5118;48.570;7.916;2023-01-01T09:08:45;4.10;;;3.50;;
10154;SDS011;5118;48.570;7.916;2023-01-01T09:11:14;4.20;;;3.20;;
10154;SDS011;5118;48.570;7.916;2023-01-01T09:13:50;7.40;;;3.47;;
10154;SDS011;5118;48.570;7.916;2023-01-01T09:16:20;5.47;;;3.20;;
10154;SDS011;5118;48.570;7.916;2023-01-01T09:18:48;7.20;;;4.63;;
10154;SDS011;5118;48.570;7.916;2023-01-01T09:21:19;8.43;;;5.10;;
10154;SDS011;5118;48.570;7.916;2023-01-01T09:23:47;4.60;;;3.73;;
10154;SDS011;5118;48.570;7.916;2023-01-01T09:26:15;7.77;;;5.50;;
10154;SDS011;5118;48.570;7.916;2023-01-01T09:28:43;6.57;;;3.90;;
10154;SDS011;5118;48.570;7.916;2023-01-01T09:31:12;5.90;;;4.40;;
10154;SDS011;5118;48.570;7.916;2023-01-01T09:33:40;10.00;;;6.10;;
10154;SDS011;5118;48.570;7.916;2023-01-01T09:36:12;6.73;;;5.20;;
10154;SDS011;5118;48.570;7.916;2023-01-01T09:38:44;6.53;;;4.10;;
10154;SDS011;5118;48.570;7.916;2023-01-01T09:41:17;5.70;;;3.93;;
10154;SDS011;5118;48.570;7.916;2023-01-01T09:43:54;7.13;;;3.87;;
10154;SDS011;5118;48.570;7.916;2023-01-01T09:46:28;5.60;;;3.87;;
10154;SDS011;5118;48.570;7.916;2023-01-01T09:48:58;7.37;;;3.50;;
10154;SDS011;5118;48.570;7.916;2023-01-01T09:51:33;9.67;;;4.00;;
10154;SDS011;5118;48.570;7.916;2023-01-01T09:54:18;6.87;;;3.20;;
10154;SDS011;5118;48.570;7.916;2023-01-01T09:56:54;4.90;;;3.47;;
10154;SDS011;5118;48.570;7.916;2023-01-01T09:59:22;6.90;;;3.60;;
10154;SDS011;5118;48.570;7.916;2023-01-01T10:01:53;7.73;;;4.10;;
10154;SDS011;5118;48.570;7.916;2023-01-01T10:04:29;7.73;;;4.93;;
10154;SDS011;5118;48.570;7.916;2023-01-01T10:07:10;11.87;;;4.90;;
10154;SDS011;5118;48.570;7.916;2023-01-01T10:09:48;8.57;;;4.20;;
10154;SDS011;5118;48.570;7.916;2023-01-01T10:12:26;6.13;;;3.90;;
10154;SDS011;5118;48.570;7.916;2023-01-01T10:15:04;6.60;;;3.30;;
10154;SDS011;5118;48.570;7.916;2023-01-01T10:17:41;5.65;;;3.47;;
10154;SDS011;5118;48.570;7.916;2023-01-01T10:20:15;4.43;;;3.40;;
10154;SDS011;5118;48.570;7.916;2023-01-01T10:22:47;6.70;;;3.38;;
10154;SDS011;5118;48.570;7.916;2023-01-01T10:25:22;5.88;;;3.38;;
10154;SDS011;5118;48.570;7.916;2023-01-01T10:27:55;4.78;;;3.30;;
10154;SDS011;5118;48.570;7.916;2023-01-01T10:30:26;9.13;;;5.32;;
10154;SDS011;5118;48.570;7.916;2023-01-01T10:32:56;10.10;;;3.33;;
10154;SDS011;5118;48.570;7.916;2023-01-01T10:35:25;8.02;;;3.55;;
10154;SDS011;5118;48.570;7.916;2023-01-01T10:38:02;6.72;;;3.15;;
10154;SDS011;5118;48.570;7.916;2023-01-01T10:40:33;7.28;;;3.25;;
10154;SDS011;5118;48.570;7.916;2023-01-01T10:43:01;5.80;;;3.85;;
10154;SDS011;5118;48.570;7.916;2023-01-01T10:45:31;6.43;;;3.45;;
10154;SDS011;5118;48.570;7.916;2023-01-01T10:50:49;6.15;;;2.97;;
10154;SDS011;5118;48.570;7.916;2023-01-01T10:53:20;5.10;;;2.80;;
10154;SDS011;5118;48.570;7.916;2023-01-01T10:55:57;6.32;;;2.97;;
10154;SDS011;5118;48.570;7.916;2023-01-01T10:58:33;6.18;;;2.75;;
10154;SDS011;5118;48.570;7.916;2023-01-01T11:01:04;4.00;;;2.70;;
10154;SDS011;5118;48.570;7.916;2023-01-01T11:03:34;7.72;;;4.38;;
10154;SDS011;5118;48.570;7.916;2023-01-01T11:06:13;5.57;;;3.88;;
10154;SDS011;5118;48.570;7.916;2023-01-01T11:08:49;5.65;;;3.42;;
10154;SDS011;5118;48.570;7.916;2023-01-01T11:11:21;9.10;;;4.10;;
10154;SDS011;5118;48.570;7.916;2023-01-01T11:13:54;5.18;;;3.20;;
10154;SDS011;5118;48.570;7.916;2023-01-01T11:16:23;4.68;;;2.80;;
10154;SDS011;5118;48.570;7.916;2023-01-01T11:18:59;7.20;;;3.50;;
10154;SDS011;5118;48.570;7.916;2023-01-01T11:21:29;5.25;;;3.40;;
10154;SDS011;5118;48.570;7.916;2023-01-01T11:24:09;7.13;;;3.45;;
10154;SDS011;5118;48.570;7.916;2023-01-01T11:26:47;8.15;;;3.40;;
10154;SDS011;5118;48.570;7.916;2023-01-01T11:29:25;5.50;;;3.60;;
10154;SDS011;5118;48.570;7.916;2023-01-01T11:31:55;5.78;;;4.00;;
10154;SDS011;5118;48.570;7.916;2023-01-01T11:34:27;7.03;;;3.30;;
10154;SDS011;5118;48.570;7.916;2023-01-01T11:37:08;5.60;;;3.10;;
10154;SDS011;5118;48.570;7.916;2023-01-01T11:39:50;5.70;;;2.70;;
10154;SDS011;5118;48.570;7.916;2023-01-01T11:42:22;6.32;;;3.38;;
10154;SDS011;5118;48.570;7.916;2023-01-01T11:44:53;4.45;;;3.00;;
10154;SDS011;5118;48.570;7.916;2023-01-01T11:47:25;6.18;;;3.47;;
10154;SDS011;5118;48.570;7.916;2023-01-01T11:49:57;6.53;;;3.10;;
10154;SDS011;5118;48.570;7.916;2023-01-01T11:52:33;5.70;;;2.58;;
10154;SDS011;5118;48.570;7.916;2023-01-01T11:55:12;4.30;;;2.50;;
10154;SDS011;5118;48.570;7.916;2023-01-01T11:57:48;5.45;;;2.60;;
10154;SDS011;5118;48.570;7.916;2023-01-01T12:00:22;4.60;;;2.70;;
10154;SDS011;5118;48.570;7.916;2023-01-01T12:02:52;6.40;;;2.70;;
10154;SDS011;5118;48.570;7.916;2023-01-01T12:05:33;7.45;;;2.78;;
10154;SDS011;5118;48.570;7.916;2023-01-01T12:08:09;4.47;;;2.70;;
10154;SDS011;5118;48.570;7.916;2023-01-01T12:10:53;6.47;;;2.80;;
10154;SDS011;5118;48.570;7.916;2023-01-01T12:13:27;3.65;;;2.50;;
10154;SDS011;5118;48.570;7.916;2023-01-01T12:16:05;5.90;;;2.80;;
10154;SDS011;5118;48.570;7.916;2023-01-01T12:18:38;9.15;;;2.72;;
10154;SDS011;5118;48.570;7.916;2023-01-01T12:21:16;4.57;;;2.42;;
10154;SDS011;5118;48.570;7.916;2023-01-01T12:23:49;5.43;;;2.50;;
10154;SDS011;5118;48.570;7.916;2023-01-01T12:26:18;4.65;;;2.42;;
10154;SDS011;5118;48.570;7.916;2023-01-01T12:29:00;6.65;;;2.80;;
10154;SDS011;5118;48.570;7.916;2023-01-01T12:31:44;3.92;;;2.50;;
10154;SDS011;5118;48.570;7.916;2023-01-01T12:34:19;4.18;;;2.70;;
10154;SDS011;5118;48.570;7.916;2023-01-01T12:36:57;5.13;;;2.80;;
10154;SDS011;5118;48.570;7.916;2023-01-01T12:39:43;4.57;;;2.72;;
10154;SDS011;5118;48.570;7.916;2023-01-01T12:42:28;5.25;;;2.90;;
10154;SDS011;5118;48.570;7.916;2023-01-01T12:45:18;7.30;;;2.90;;
10154;SDS011;5118;48.570;7.916;2023-01-01T12:48:02;4.28;;;2.50;;
10154;SDS011;5118;48.570;7.916;2023-01-01T12:50:49;5.60;;;2.50;;
10154;SDS011;5118;48.570;7.916;2023-01-01T12:53:32;7.45;;;2.55;;
10154;SDS011;5118;48.570;7.916;2023-01-01T12:56:13;3.55;;;2.25;;
10154;SDS011;5118;48.570;7.916;2023-01-01T12:58:50;4.05;;;2.45;;
10154;SDS011;5118;48.570;7.916;2023-01-01T13:01:24;5.85;;;2.60;;
10154;SDS011;5118;48.570;7.916;2023-01-01T13:04:00;6.43;;;2.28;;
10154;SDS011;5118;48.570;7.916;2023-01-01T13:06:32;6.40;;;2.65;;
10154;SDS011;5118;48.570;7.916;2023-01-01T13:09:05;5.63;;;2.58;;
10154;SDS011;5118;48.570;7.916;2023-01-01T13:11:37;6.75;;;2.40;;
10154;SDS011;5118;48.570;7.916;2023-01-01T13:14:11;5.80;;;2.20;;
10154;SDS011;5118;48.570;7.916;2023-01-01T13:16:41;6.15;;;2.35;;
10154;SDS011;5118;48.570;7.916;2023-01-01T13:19:22;4.18;;;2.40;;
10154;SDS011;5118;48.570;7.916;2023-01-01T13:21:53;4.85;;;2.40;;
10154;SDS011;5118;48.570;7.916;2023-01-01T13:24:22;5.78;;;2.60;;
10154;SDS011;5118;48.570;7.916;2023-01-01T13:26:52;6.13;;;2.53;;
10154;SDS011;5118;48.570;7.916;2023-01-01T13:29:24;4.25;;;2.33;;
10154;SDS011;5118;48.570;7.916;2023-01-01T13:32:11;4.60;;;2.15;;
10154;SDS011;5118;48.570;7.916;2023-01-01T13:34:42;5.43;;;2.45;;
10154;SDS011;5118;48.570;7.916;2023-01-01T13:37:41;8.18;;;2.70;;
10154;SDS011;5118;48.570;7.916;2023-01-01T13:46:02;4.57;;;2.13;;
10154;SDS011;5118;48.570;7.916;2023-01-01T13:48:49;4.95;;;2.60;;
10154;SDS011;5118;48.570;7.916;2023-01-01T13:51:50;6.22;;;2.30;;
10154;SDS011;5118;48.570;7.916;2023-01-01T13:57:37;4.55;;;2.50;;
10154;SDS011;5118;48.570;7.916;2023-01-01T14:00:34;5.65;;;2.33;;
10154;SDS011;5118;48.570;7.916;2023-01-01T14:03:15;3.97;;;2.53;;
10154;SDS011;5118;48.570;7.916;2023-01-01T14:05:47;7.13;;;2.80;;
10154;SDS011;5118;48.570;7.916;2023-01-01T14:08:25;4.85;;;2.83;;
10154;SDS011;5118;48.570;7.916;2023-01-01T14:10:55;7.10;;;2.85;;
10154;SDS011;5118;48.570;7.916;2023-01-01T14:13:27;4.95;;;2.60;;
10154;SDS011;5118;48.570;7.916;2023-01-01T14:15:58;4.88;;;2.67;;
10154;SDS011;5118;48.570;7.916;2023-01-01T14:18:31;6.45;;;3.10;;
10154;SDS011;5118;48.570;7.916;2023-01-01T14:21:02;6.28;;;2.70;;
10154;SDS011;5118;48.570;7.916;2023-01-01T14:23:35;7.15;;;2.50;;
10154;SDS011;5118;48.570;7.916;2023-01-01T14:26:07;6.72;;;4.78;;
10154;SDS011;5118;48.570;7.916;2023-01-01T14:28:39;7.55;;;3.70;;
10154;SDS011;5118;48.570;7.916;2023-01-01T14:31:09;6.50;;;3.50;;
10154;SDS011;5118;48.570;7.916;2023-01-01T14:33:40;7.00;;;3.53;;
10154;SDS011;5118;48.570;7.916;2023-01-01T14:36:15;9.38;;;4.82;;
10154;SDS011;5118;48.570;7.916;2023-01-01T14:38:47;10.57;;;5.07;;
10154;SDS011;5118;48.570;7.916;2023-01-01T14:41:17;8.68;;;3.90;;
10154;SDS011;5118;48.570;7.916;2023-01-01T14:43:50;7.78;;;4.70;;
10154;SDS011;5118;48.570;7.916;2023-01-01T14:46:21;4.80;;;3.83;;
10154;SDS011;5118;48.570;7.916;2023-01-01T14:48:52;5.90;;;3.72;;
10154;SDS011;5118;48.570;7.916;2023-01-01T14:51:24;6.38;;;3.53;;
10154;SDS011;5118;48.570;7.916;2023-01-01T14:53:54;8.23;;;3.10;;
10154;SDS011;5118;48.570;7.916;2023-01-01T14:56:26;6.95;;;3.40;;
10154;SDS011;5118;48.570;7.916;2023-01-01T14:58:57;6.22;;;3.60;;
10154;SDS011;5118;48.570;7.916;2023-01-01T15:01:31;5.97;;;3.92;;
10154;SDS011;5118;48.570;7.916;2023-01-01T15:04:01;8.13;;;3.75;;
10154;SDS011;5118;48.570;7.916;2023-01-01T15:06:31;11.13;;;5.38;;
10154;SDS011;5118;48.570;7.916;2023-01-01T15:08:59;16.25;;;12.93;;
10154;SDS011;5118;48.570;7.916;2023-01-01T15:11:28;14.07;;;11.88;;
10154;SDS011;5118;48.570;7.916;2023-01-01T15:13:57;9.70;;;6.15;;
10154;SDS011;5118;48.570;7.916;2023-01-01T15:16:27;9.52;;;5.13;;
10154;SDS011;5118;48.570;7.916;2023-01-01T15:19:15;8.30;;;4.70;;
10154;SDS011;5118;48.570;7.916;2023-01-01T15:21:46;7.00;;;4.50;;
10154;SDS011;5118;48.570;7.916;2023-01-01T15:24:16;8.48;;;4.00;;
10154;SDS011;5118;48.570;7.916;2023-01-01T15:26:48;6.85;;;4.28;;
10154;SDS011;5118;48.570;7.916;2023-01-01T15:29:23;9.00;;;5.85;;
10154;SDS011;5118;48.570;7.916;2023-01-01T15:31:55;13.52;;;8.10;;
10154;SDS011;5118;48.570;7.916;2023-01-01T15:34:28;8.27;;;4.80;;
10154;SDS011;5118;48.570;7.916;2023-01-01T15:37:05;8.45;;;4.47;;
10154;SDS011;5118;48.570;7.916;2023-01-01T15:39:46;5.15;;;3.78;;
10154;SDS011;5118;48.570;7.916;2023-01-01T15:42:20;4.80;;;2.92;;
10154;SDS011;5118;48.570;7.916;2023-01-01T15:44:54;8.25;;;3.58;;